createdAt,value
2022-09-21T00:01:45.425Z,9.60
2022-09-21T00:04:13.255Z,9.60
2022-09-21T00:06:41.021Z,9.60
2022-09-21T00:09:09.409Z,9.60
2022-09-21T00:11:38.577Z,9.60
2022-09-21T00:14:10.329Z,9.50
2022-09-21T00:16:38.580Z,9.50
2022-09-21T00:19:06.573Z,9.40
2022-09-21T00:21:34.820Z,9.40
2022-09-21T00:24:03.503Z,9.40
2022-09-21T00:26:32.105Z,9.50
2022-09-21T00:29:03.260Z,9.40
2022-09-21T00:31:32.126Z,9.30
2022-09-21T00:34:00.912Z,9.30
2022-09-21T00:36:29.226Z,9.30
2022-09-21T00:38:58.875Z,9.30
2022-09-21T00:41:27.949Z,9.30
2022-09-21T00:44:29.814Z,9.20
2022-09-21T00:47:02.268Z,9.20
2022-09-21T00:49:30.833Z,9.20
2022-09-21T00:52:00.288Z,9.20
2022-09-21T00:54:31.055Z,9.20
2022-09-21T00:57:01.225Z,9.30
2022-09-21T00:59:32.111Z,9.20
2022-09-21T01:02:00.409Z,9.20
2022-09-21T01:04:29.189Z,9.10
2022-09-21T01:06:57.823Z,9.10
2022-09-21T01:09:26.034Z,9.20
2022-09-21T01:12:08.672Z,9.20
2022-09-21T01:14:57.815Z,9.20
2022-09-21T01:17:35.993Z,9.10
2022-09-21T01:20:31.377Z,9.10
2022-09-21T01:23:13.285Z,9.00
2022-09-21T01:25:52.149Z,9.00
2022-09-21T01:28:32.185Z,9.00
2022-09-21T01:31:05.898Z,9.00
2022-09-21T01:33:38.416Z,8.90
2022-09-21T01:36:11.872Z,8.90
2022-09-21T01:38:43.249Z,8.80
2022-09-21T01:41:14.393Z,8.70
2022-09-21T01:43:46.232Z,8.80
2022-09-21T01:46:18.791Z,8.70
2022-09-21T01:48:50.544Z,8.70
2022-09-21T01:51:21.068Z,8.70
2022-09-21T01:53:53.723Z,8.70
2022-09-21T01:56:25.060Z,8.70
2022-09-21T01:59:02.297Z,8.70
2022-09-21T02:01:35.512Z,8.70
2022-09-21T02:04:06.586Z,8.70
2022-09-21T02:06:34.569Z,8.70
2022-09-21T02:09:02.407Z,8.60
2022-09-21T02:11:30.160Z,8.60
2022-09-21T02:13:57.953Z,8.60
2022-09-21T02:16:39.567Z,8.60
2022-09-21T02:19:15.004Z,8.60
2022-09-21T02:21:54.917Z,8.50
2022-09-21T02:24:29.554Z,8.50
2022-09-21T02:27:04.936Z,8.50
2022-09-21T02:29:43.164Z,8.40
2022-09-21T02:32:19.057Z,8.50
2022-09-21T02:34:50.348Z,8.50
2022-09-21T02:37:25.164Z,8.50
2022-09-21T02:39:59.503Z,8.40
2022-09-21T02:42:30.696Z,8.40
2022-09-21T02:45:04.274Z,8.30
2022-09-21T02:47:37.545Z,8.30
2022-09-21T02:50:10.578Z,8.20
2022-09-21T02:52:42.436Z,8.20
2022-09-21T02:55:11.529Z,8.20
2022-09-21T02:57:39.696Z,8.20
2022-09-21T03:00:08.883Z,8.10
2022-09-21T03:02:39.333Z,8.10
2022-09-21T03:05:08.140Z,8.10
2022-09-21T03:07:35.929Z,8.10
2022-09-21T03:10:04.566Z,8.10
2022-09-21T03:12:32.654Z,8.10
2022-09-21T03:15:00.712Z,8.10
2022-09-21T03:17:28.709Z,8.00
2022-09-21T03:19:57.965Z,8.00
2022-09-21T03:22:25.805Z,8.00
2022-09-21T03:24:57.433Z,7.90
2022-09-21T03:27:25.459Z,7.90
2022-09-21T03:29:53.472Z,7.90
2022-09-21T03:32:21.207Z,7.90
2022-09-21T03:34:48.981Z,7.90
2022-09-21T03:37:18.080Z,7.90
2022-09-21T03:39:47.207Z,8.00
2022-09-21T03:42:14.957Z,7.90
2022-09-21T03:44:43.032Z,7.90
2022-09-21T03:47:10.801Z,7.90
2022-09-21T03:49:38.782Z,7.90
2022-09-21T03:52:06.604Z,7.80
2022-09-21T03:54:35.754Z,7.80
2022-09-21T03:57:03.527Z,7.70
2022-09-21T03:59:31.264Z,7.70
2022-09-21T04:01:59.033Z,7.80
2022-09-21T04:04:26.812Z,7.80
2022-09-21T04:06:54.541Z,7.90
2022-09-21T04:09:22.281Z,7.80
2022-09-21T04:11:52.238Z,7.60
2022-09-21T04:14:20.039Z,7.60
2022-09-21T04:16:47.778Z,7.60
2022-09-21T04:19:16.540Z,7.50
2022-09-21T04:21:44.316Z,7.50
2022-09-21T04:24:12.052Z,7.50
2022-09-21T04:26:41.017Z,7.50
2022-09-21T04:29:15.223Z,7.50
2022-09-21T04:31:43.568Z,7.40
2022-09-21T04:34:14.280Z,7.40
2022-09-21T04:36:42.069Z,7.40
2022-09-21T04:39:09.924Z,7.40
2022-09-21T04:41:37.646Z,7.40
2022-09-21T04:44:05.529Z,7.30
2022-09-21T04:46:34.827Z,7.30
2022-09-21T04:49:02.568Z,7.30
2022-09-21T04:51:31.470Z,7.30
2022-09-21T04:53:59.334Z,7.30
2022-09-21T04:56:27.045Z,7.30
2022-09-21T04:58:54.929Z,7.30
2022-09-21T05:01:22.727Z,7.20
2022-09-21T05:03:51.938Z,7.20
2022-09-21T05:06:19.760Z,7.20
2022-09-21T05:09:04.875Z,7.20
2022-09-21T05:11:33.420Z,7.20
2022-09-21T05:14:01.201Z,7.20
2022-09-21T05:16:28.946Z,7.20
2022-09-21T05:18:58.119Z,7.20
2022-09-21T05:21:26.001Z,7.10
2022-09-21T05:23:53.783Z,7.10
2022-09-21T05:26:21.547Z,7.10
2022-09-21T05:28:49.848Z,7.20
2022-09-21T05:31:31.576Z,7.20
2022-09-21T05:34:08.000Z,7.10
2022-09-21T05:36:49.448Z,7.10
2022-09-21T05:39:17.708Z,7.10
2022-09-21T05:41:45.992Z,7.50
2022-09-21T05:44:15.248Z,8.00
2022-09-21T05:46:52.687Z,8.20
2022-09-21T05:49:35.426Z,8.00
2022-09-21T05:52:12.848Z,7.50
2022-09-21T05:54:52.197Z,7.30
2022-09-21T05:57:30.971Z,7.20
2022-09-21T06:00:10.916Z,7.20
2022-09-21T06:03:17.559Z,7.20
2022-09-21T06:05:46.938Z,7.10
2022-09-21T06:08:14.805Z,7.20
2022-09-21T06:10:43.162Z,7.30
2022-09-21T06:13:11.071Z,7.20
2022-09-21T06:15:38.979Z,7.20
2022-09-21T06:18:07.119Z,7.20
2022-09-21T06:20:35.612Z,7.20
2022-09-21T06:23:05.656Z,7.20
2022-09-21T06:25:33.488Z,7.40
2022-09-21T06:28:04.330Z,7.40
2022-09-21T06:30:33.121Z,7.40
2022-09-21T06:33:01.574Z,7.40
2022-09-21T06:35:29.460Z,8.20
2022-09-21T06:38:00.665Z,8.70
2022-09-21T06:40:31.438Z,8.60
2022-09-21T06:42:59.974Z,9.00
2022-09-21T06:45:28.249Z,8.60
2022-09-21T06:47:56.152Z,8.40
2022-09-21T06:50:24.610Z,8.00
2022-09-21T06:52:52.446Z,7.80
2022-09-21T06:55:20.260Z,7.60
2022-09-21T06:57:50.928Z,7.70
2022-09-21T07:00:18.768Z,7.80
2022-09-21T07:02:46.576Z,7.80
2022-09-21T07:05:14.613Z,7.70
2022-09-21T07:07:42.629Z,7.70
2022-09-21T07:10:15.898Z,7.60
2022-09-21T07:12:46.339Z,7.40
2022-09-21T07:15:15.495Z,7.30
2022-09-21T07:17:50.337Z,7.50
2022-09-21T07:20:19.971Z,7.70
2022-09-21T07:22:47.731Z,7.60
2022-09-21T07:25:15.669Z,7.80
2022-09-21T07:27:43.513Z,7.60
2022-09-21T07:30:12.353Z,7.70
2022-09-21T07:32:41.499Z,7.70
2022-09-21T07:35:09.558Z,7.90
2022-09-21T07:37:37.319Z,7.90
2022-09-21T07:40:06.326Z,7.90
2022-09-21T07:42:34.119Z,8.00
2022-09-21T07:45:04.202Z,8.00
2022-09-21T07:47:32.436Z,8.30
2022-09-21T07:50:01.505Z,8.40
2022-09-21T07:52:29.467Z,9.10
2022-09-21T07:54:57.255Z,8.70
2022-09-21T07:57:57.640Z,8.50
2022-09-21T08:00:29.115Z,8.50
2022-09-21T08:02:59.861Z,8.50
2022-09-21T08:05:29.052Z,8.60
2022-09-21T08:07:57.416Z,8.70
2022-09-21T08:10:28.118Z,8.70
2022-09-21T08:12:55.967Z,8.90
2022-09-21T08:15:46.868Z,9.30
2022-09-21T08:18:11.880Z,9.20
2022-09-21T08:20:41.337Z,9.30
2022-09-21T08:23:09.777Z,9.20
2022-09-21T08:25:37.563Z,9.30
2022-09-21T08:28:09.589Z,9.70
2022-09-21T08:30:37.701Z,9.30
2022-09-21T08:33:06.765Z,9.10
2022-09-21T08:35:34.720Z,9.60
2022-09-21T08:38:03.860Z,9.40
2022-09-21T08:40:32.083Z,9.80
2022-09-21T08:43:04.412Z,9.40
2022-09-21T08:45:36.078Z,9.40
2022-09-21T08:48:06.410Z,9.10
2022-09-21T08:50:38.402Z,9.60
2022-09-21T08:53:14.390Z,10.20
2022-09-21T08:55:42.378Z,10.10
2022-09-21T08:58:21.354Z,9.60
2022-09-21T09:00:52.543Z,10.10
2022-09-21T09:03:52.821Z,9.90
2022-09-21T09:06:30.213Z,10.00
2022-09-21T09:09:19.001Z,10.10
2022-09-21T09:12:00.541Z,10.10
2022-09-21T09:14:54.841Z,10.10
2022-09-21T09:17:33.848Z,10.00
2022-09-21T09:20:06.073Z,9.90
2022-09-21T09:22:40.096Z,10.10
2022-09-21T09:25:19.561Z,10.30
2022-09-21T09:27:49.029Z,10.70
2022-09-21T09:30:19.932Z,10.40
2022-09-21T09:32:54.511Z,10.60
2022-09-21T09:35:27.920Z,10.60
2022-09-21T09:38:00.926Z,10.30
2022-09-21T09:40:56.532Z,10.50
2022-09-21T09:43:36.491Z,10.60
2022-09-21T09:46:13.697Z,11.30
2022-09-21T09:48:59.836Z,11.60
2022-09-21T09:51:27.872Z,11.70
2022-09-21T09:54:00.720Z,11.50
2022-09-21T09:56:31.417Z,11.10
2022-09-21T09:59:06.791Z,11.60
2022-09-21T10:01:39.537Z,12.70
2022-09-21T10:04:10.130Z,13.10
2022-09-21T10:06:43.654Z,13.10
2022-09-21T10:09:27.649Z,12.30
2022-09-21T10:12:00.796Z,12.60
2022-09-21T10:14:33.696Z,13.30
2022-09-21T10:17:05.833Z,12.10
2022-09-21T10:19:33.949Z,12.00
2022-09-21T10:22:03.507Z,11.50
2022-09-21T10:24:34.313Z,11.90
2022-09-21T10:27:12.675Z,12.00
2022-09-21T10:29:42.939Z,11.90
2022-09-21T10:32:22.702Z,12.10
2022-09-21T10:35:17.904Z,11.90
2022-09-21T10:37:48.354Z,11.70
2022-09-21T10:40:26.196Z,11.30
2022-09-21T10:42:58.509Z,11.50
2022-09-21T10:45:27.816Z,11.50
2022-09-21T10:47:58.126Z,11.40
2022-09-21T10:50:31.097Z,11.50
2022-09-21T10:53:03.437Z,11.70
2022-09-21T10:55:33.248Z,12.00
2022-09-21T10:58:02.447Z,11.50
2022-09-21T11:00:35.876Z,11.60
2022-09-21T11:03:25.841Z,11.80
2022-09-21T11:05:56.251Z,12.10
2022-09-21T11:08:29.677Z,12.10
2022-09-21T11:11:09.642Z,12.00
2022-09-21T11:13:47.313Z,12.20
2022-09-21T11:16:19.296Z,12.50
2022-09-21T11:18:53.085Z,12.60
2022-09-21T11:21:27.237Z,12.50
2022-09-21T11:24:03.654Z,12.40
2022-09-21T11:26:40.612Z,12.40
2022-09-21T11:29:16.467Z,12.80
2022-09-21T11:32:06.337Z,12.50
2022-09-21T11:34:55.965Z,12.70
2022-09-21T11:37:40.201Z,12.90
2022-09-21T11:40:20.210Z,13.20
2022-09-21T11:43:01.592Z,13.40
2022-09-21T11:45:57.387Z,13.50
2022-09-21T11:48:33.702Z,13.10
2022-09-21T11:51:14.879Z,12.90
2022-09-21T11:53:58.692Z,12.80
2022-09-21T11:56:36.562Z,13.10
2022-09-21T11:59:18.259Z,13.40
2022-09-21T12:02:05.622Z,13.70
2022-09-21T12:04:43.737Z,13.80
2022-09-21T12:07:24.446Z,13.70
2022-09-21T12:10:18.069Z,13.50
2022-09-21T12:12:54.804Z,13.60
2022-09-21T12:15:30.197Z,13.60
2022-09-21T12:18:05.850Z,13.60
2022-09-21T12:20:43.637Z,14.30
2022-09-21T12:23:17.391Z,13.80
2022-09-21T12:25:51.254Z,13.80
2022-09-21T12:28:24.501Z,14.10
2022-09-21T12:31:00.622Z,14.10
2022-09-21T12:33:35.936Z,14.20
2022-09-21T12:36:10.309Z,13.80
2022-09-21T12:38:44.171Z,13.30
2022-09-21T12:41:18.712Z,13.10
2022-09-21T12:43:52.160Z,13.20
2022-09-21T12:46:23.964Z,13.50
2022-09-21T12:48:54.199Z,14.00
2022-09-21T12:51:27.389Z,14.30
2022-09-21T12:53:59.854Z,14.10
2022-09-21T12:56:37.368Z,14.00
2022-09-21T12:59:15.024Z,14.00
2022-09-21T13:01:47.446Z,14.10
2022-09-21T13:04:38.374Z,13.90
2022-09-21T13:07:51.786Z,14.10
2022-09-21T13:10:23.317Z,14.00
2022-09-21T13:12:56.913Z,14.00
2022-09-21T13:15:27.867Z,14.20
2022-09-21T13:18:01.630Z,14.20
2022-09-21T13:20:36.101Z,13.80
2022-09-21T13:23:04.159Z,13.90
2022-09-21T13:25:37.441Z,14.00
2022-09-21T13:28:24.112Z,14.00
2022-09-21T13:31:40.267Z,13.90
2022-09-21T13:34:23.148Z,13.80
2022-09-21T13:37:32.758Z,14.00
2022-09-21T13:40:41.084Z,14.10
2022-09-21T13:43:46.203Z,14.10
2022-09-21T13:47:02.851Z,14.30
2022-09-21T13:49:46.753Z,14.30
2022-09-21T13:52:29.376Z,14.20
2022-09-21T13:55:00.117Z,14.00
2022-09-21T13:57:33.185Z,14.10
2022-09-21T14:00:25.054Z,13.90
2022-09-21T14:03:03.874Z,13.80
2022-09-21T14:05:36.552Z,14.10
2022-09-21T14:08:08.148Z,13.90
2022-09-21T14:10:38.986Z,13.90
2022-09-21T14:13:25.620Z,13.90
2022-09-21T14:15:54.814Z,13.90
2022-09-21T14:18:38.589Z,13.90
2022-09-21T14:21:21.023Z,13.80
2022-09-21T14:24:21.133Z,14.00
2022-09-21T14:26:55.139Z,13.90
2022-09-21T14:29:26.560Z,13.70
2022-09-21T14:31:57.952Z,13.60
2022-09-21T14:34:28.188Z,13.80
2022-09-21T14:36:59.734Z,13.80
2022-09-21T14:39:36.538Z,13.80
2022-09-21T14:42:12.318Z,13.80
2022-09-21T14:44:42.300Z,13.80
2022-09-21T14:47:34.122Z,13.80
2022-09-21T14:50:19.068Z,13.80
2022-09-21T14:53:15.107Z,13.90
2022-09-21T14:55:55.993Z,13.80
2022-09-21T14:58:35.926Z,13.80
2022-09-21T15:01:22.393Z,13.70
2022-09-21T15:04:09.053Z,13.60
2022-09-21T15:06:58.827Z,13.60
2022-09-21T15:10:02.612Z,13.50
2022-09-21T15:12:40.741Z,13.60
2022-09-21T15:15:24.168Z,13.60
2022-09-21T15:17:57.347Z,13.40
2022-09-21T15:20:31.027Z,13.40
2022-09-21T15:23:00.695Z,13.40
2022-09-21T15:25:33.038Z,13.30
2022-09-21T15:28:01.121Z,13.40
2022-09-21T15:30:33.075Z,13.40
2022-09-21T15:33:02.208Z,13.40
2022-09-21T15:35:33.674Z,13.40
2022-09-21T15:38:01.988Z,13.20
2022-09-21T15:40:32.796Z,13.20
2022-09-21T15:43:06.347Z,13.30
2022-09-21T15:45:42.131Z,13.10
2022-09-21T15:48:12.637Z,13.20
2022-09-21T15:50:43.470Z,13.10
2022-09-21T15:53:19.509Z,13.10
2022-09-21T15:55:48.512Z,13.10
2022-09-21T15:58:37.097Z,13.10
2022-09-21T16:01:11.125Z,13.00
2022-09-21T16:03:40.127Z,12.90
2022-09-21T16:06:27.829Z,12.90
2022-09-21T16:08:56.176Z,12.90
2022-09-21T16:11:37.579Z,12.80
2022-09-21T16:14:29.021Z,12.80
2022-09-21T16:17:23.671Z,12.70
2022-09-21T16:20:27.183Z,12.70
2022-09-21T16:23:06.304Z,12.60
2022-09-21T16:25:36.992Z,12.60
2022-09-21T16:28:09.637Z,12.60
2022-09-21T16:30:46.687Z,12.50
2022-09-21T16:33:37.804Z,12.40
2022-09-21T16:36:29.482Z,12.40
2022-09-21T16:38:59.970Z,12.40
2022-09-21T16:41:34.700Z,12.40
2022-09-21T16:44:03.191Z,12.30
2022-09-21T16:46:32.129Z,12.30
2022-09-21T16:49:00.609Z,12.20
2022-09-21T16:51:28.989Z,12.10
2022-09-21T16:53:58.414Z,12.00
2022-09-21T16:56:26.996Z,12.00
2022-09-21T16:58:54.752Z,12.00
2022-09-21T17:01:22.637Z,11.90
2022-09-21T17:03:50.419Z,11.80
2022-09-21T17:06:19.883Z,11.80
2022-09-21T17:08:48.572Z,11.70
2022-09-21T17:11:19.867Z,11.80
2022-09-21T17:13:47.850Z,11.80
2022-09-21T17:16:19.536Z,11.70
2022-09-21T17:18:48.584Z,11.90
2022-09-21T17:21:20.459Z,11.90
2022-09-21T17:23:48.340Z,11.70
2022-09-21T17:26:20.953Z,11.70
2022-09-21T17:28:48.699Z,11.50
2022-09-21T17:31:17.412Z,11.60
2022-09-21T17:33:47.701Z,11.80
2022-09-21T17:36:16.239Z,11.80
2022-09-21T17:38:44.854Z,11.70
2022-09-21T17:41:24.191Z,11.80
2022-09-21T17:44:00.808Z,11.80
2022-09-21T17:46:41.556Z,11.90
2022-09-21T17:49:10.860Z,11.90
2022-09-21T17:51:56.791Z,11.90
2022-09-21T17:54:25.181Z,11.80
2022-09-21T17:56:59.951Z,11.70
2022-09-21T17:59:32.572Z,11.70
2022-09-21T18:02:01.328Z,11.70
2022-09-21T18:04:32.896Z,11.70
2022-09-21T18:07:01.162Z,11.70
2022-09-21T18:09:29.465Z,11.60
2022-09-21T18:12:14.560Z,11.60
2022-09-21T18:14:53.027Z,11.60
2022-09-21T18:17:39.275Z,11.60
2022-09-21T18:20:24.131Z,11.50
2022-09-21T18:22:59.265Z,11.50
2022-09-21T18:25:30.717Z,11.50
2022-09-21T18:28:04.246Z,11.50
2022-09-21T18:30:33.293Z,11.40
2022-09-21T18:33:13.257Z,11.40
2022-09-21T18:36:04.524Z,11.40
2022-09-21T18:38:36.278Z,11.30
2022-09-21T18:41:12.724Z,11.20
2022-09-21T18:43:57.761Z,11.30
2022-09-21T18:46:33.326Z,11.30
2022-09-21T18:49:06.659Z,11.30
2022-09-21T18:51:41.277Z,11.30
2022-09-21T18:54:15.896Z,11.20
2022-09-21T18:56:43.804Z,11.10
2022-09-21T18:59:14.605Z,11.10
2022-09-21T19:01:43.170Z,11.10
2022-09-21T19:04:12.509Z,11.00
2022-09-21T19:06:46.715Z,11.00
2022-09-21T19:09:32.608Z,10.90
2022-09-21T19:12:11.585Z,10.90
2022-09-21T19:14:50.219Z,11.00
2022-09-21T19:17:33.833Z,10.90
2022-09-21T19:20:27.566Z,10.90
2022-09-21T19:23:06.131Z,10.90
2022-09-21T19:25:47.247Z,10.80
2022-09-21T19:28:37.251Z,10.80
2022-09-21T19:31:19.341Z,10.80
2022-09-21T19:33:50.849Z,10.70
2022-09-21T19:36:19.705Z,10.70
2022-09-21T19:38:47.939Z,10.70
2022-09-21T19:41:36.124Z,10.70
2022-09-21T19:44:15.198Z,10.60
2022-09-21T19:46:51.949Z,10.60
2022-09-21T19:49:21.559Z,10.60
2022-09-21T19:51:51.303Z,10.60
2022-09-21T19:54:40.131Z,10.60
2022-09-21T19:57:31.983Z,10.50
2022-09-21T20:00:00.652Z,10.50
2022-09-21T20:02:32.768Z,10.40
2022-09-21T20:05:06.560Z,10.40
2022-09-21T20:07:44.336Z,10.40
2022-09-21T20:10:41.989Z,10.30
2022-09-21T20:13:20.749Z,10.30
2022-09-21T20:15:52.915Z,10.30
2022-09-21T20:18:30.386Z,10.30
2022-09-21T20:20:58.805Z,10.30
2022-09-21T20:23:27.076Z,10.20
2022-09-21T20:25:59.834Z,10.20
2022-09-21T20:28:28.101Z,10.20
2022-09-21T20:30:55.955Z,10.20
2022-09-21T20:33:26.847Z,10.20
2022-09-21T20:35:55.336Z,10.10
2022-09-21T20:38:23.148Z,10.10
2022-09-21T20:40:51.486Z,10.10
2022-09-21T20:43:21.840Z,10.00
2022-09-21T20:45:50.194Z,10.00
2022-09-21T20:48:18.344Z,9.90
2022-09-21T20:50:49.139Z,9.90
2022-09-21T20:53:17.253Z,9.90
2022-09-21T20:55:54.041Z,9.90
2022-09-21T20:58:22.162Z,9.90
2022-09-21T21:00:49.931Z,9.90
2022-09-21T21:03:18.385Z,9.90
2022-09-21T21:05:47.447Z,9.90
2022-09-21T21:08:15.152Z,9.80
2022-09-21T21:10:46.518Z,9.80
2022-09-21T21:13:14.281Z,9.70
2022-09-21T21:15:42.075Z,9.70
2022-09-21T21:18:11.208Z,9.60
2022-09-21T21:20:40.885Z,9.60
2022-09-21T21:23:10.067Z,9.60
2022-09-21T21:25:37.807Z,9.60
2022-09-21T21:28:05.704Z,9.60
2022-09-21T21:30:33.468Z,9.60
2022-09-21T21:33:01.716Z,9.50
2022-09-21T21:35:30.104Z,9.50
2022-09-21T21:37:58.713Z,9.50
2022-09-21T21:40:27.845Z,9.50
2022-09-21T21:42:57.030Z,9.50
2022-09-21T21:45:24.860Z,9.50
2022-09-21T21:47:52.603Z,9.40
2022-09-21T21:50:20.324Z,9.40
2022-09-21T21:52:48.068Z,9.40
2022-09-21T21:55:15.843Z,9.30
2022-09-21T21:57:44.935Z,9.30
2022-09-21T22:00:14.113Z,9.20
2022-09-21T22:02:41.982Z,9.30
2022-09-21T22:05:10.541Z,9.20
2022-09-21T22:07:39.962Z,9.20
2022-09-21T22:10:09.081Z,9.20
2022-09-21T22:12:36.816Z,9.20
2022-09-21T22:15:08.396Z,9.20
2022-09-21T22:17:36.176Z,9.20
2022-09-21T22:20:04.038Z,9.20
2022-09-21T22:22:31.796Z,9.20
2022-09-21T22:24:59.562Z,9.10
2022-09-21T22:27:27.261Z,9.00
2022-09-21T22:29:54.996Z,9.00
2022-09-21T22:32:25.293Z,9.00
2022-09-21T22:34:53.310Z,9.00
2022-09-21T22:37:21.029Z,8.90
2022-09-21T22:39:48.896Z,8.90
2022-09-21T22:42:16.625Z,8.90
2022-09-21T22:44:44.405Z,8.90
2022-09-21T22:47:12.145Z,8.80
2022-09-21T22:49:41.266Z,8.80
2022-09-21T22:52:09.001Z,8.70
2022-09-21T22:54:36.761Z,8.70
2022-09-21T22:57:05.027Z,8.80
2022-09-21T23:02:11.459Z,8.80
2022-09-21T23:04:40.711Z,8.80
2022-09-21T23:07:08.453Z,8.80
2022-09-21T23:09:36.257Z,8.70
2022-09-21T23:12:04.154Z,8.70
2022-09-21T23:14:31.909Z,8.60
2022-09-21T23:16:59.686Z,8.60
2022-09-21T23:19:27.416Z,8.60
2022-09-21T23:21:57.601Z,8.60
2022-09-21T23:24:25.534Z,8.50
2022-09-21T23:26:53.342Z,8.50
2022-09-21T23:29:21.617Z,8.50
2022-09-21T23:31:49.488Z,8.40
2022-09-21T23:34:17.775Z,8.40
2022-09-21T23:36:48.164Z,8.30
2022-09-21T23:39:17.265Z,8.20
2022-09-21T23:41:45.357Z,8.20
2022-09-21T23:44:13.302Z,8.30
2022-09-21T23:46:41.519Z,8.30
2022-09-21T23:49:09.628Z,8.30
2022-09-21T23:51:37.456Z,8.30
2022-09-21T23:54:05.580Z,8.30
2022-09-21T23:56:34.987Z,8.30
2022-09-21T23:59:02.728Z,8.30
